createdAt,value
2018-05-21T00:01:54.921Z,53.90
2018-05-21T00:04:23.193Z,53.90
2018-05-21T00:06:51.450Z,53.80
2018-05-21T00:09:19.886Z,53.80
2018-05-21T00:11:48.126Z,53.80
2018-05-21T00:14:17.099Z,53.80
2018-05-21T00:16:45.560Z,53.90
2018-05-21T00:19:13.905Z,53.80
2018-05-21T00:21:42.306Z,53.80
2018-05-21T00:24:10.668Z,53.80
2018-05-21T00:26:38.926Z,53.80
2018-05-21T00:29:07.409Z,53.80
2018-05-21T00:31:35.806Z,53.80
2018-05-21T00:34:04.127Z,53.80
2018-05-21T00:36:32.402Z,53.80
2018-05-21T00:39:00.666Z,53.80
2018-05-21T00:41:28.930Z,53.80
2018-05-21T00:43:57.206Z,53.80
2018-05-21T00:46:25.465Z,53.80
2018-05-21T00:48:53.782Z,53.80
2018-05-21T00:51:22.051Z,53.80
2018-05-21T00:53:50.325Z,53.80
2018-05-21T00:56:18.599Z,53.80
2018-05-21T00:58:47.516Z,53.80
2018-05-21T01:01:15.792Z,53.70
2018-05-21T01:03:44.067Z,53.70
2018-05-21T01:06:12.405Z,53.70
2018-05-21T01:08:40.685Z,53.70
2018-05-21T01:11:08.971Z,53.70
2018-05-21T01:13:37.218Z,53.70
2018-05-21T01:16:05.493Z,53.70
2018-05-21T01:18:33.769Z,53.70
2018-05-21T01:21:02.035Z,53.60
2018-05-21T01:23:30.307Z,53.60
2018-05-21T01:25:58.581Z,53.60
2018-05-21T01:28:26.978Z,53.70
2018-05-21T01:30:55.286Z,53.60
2018-05-21T01:33:24.340Z,53.70
2018-05-21T01:35:52.605Z,53.60
2018-05-21T01:38:21.110Z,53.60
2018-05-21T01:40:49.459Z,53.50
2018-05-21T01:43:17.655Z,53.50
2018-05-21T01:45:45.954Z,53.50
2018-05-21T01:48:14.622Z,53.50
2018-05-21T01:50:43.708Z,53.60
2018-05-21T01:53:12.001Z,53.60
2018-05-21T01:55:40.272Z,53.50
2018-05-21T01:58:08.537Z,53.50
2018-05-21T02:00:36.790Z,53.60
2018-05-21T02:03:05.452Z,53.60
2018-05-21T02:05:34.479Z,53.70
2018-05-21T02:08:02.902Z,53.60
2018-05-21T02:10:31.230Z,53.20
2018-05-21T02:12:59.493Z,53.70
2018-05-21T02:15:27.761Z,53.70
2018-05-21T02:17:56.051Z,53.70
2018-05-21T02:20:24.466Z,53.70
2018-05-21T02:22:52.765Z,53.70
2018-05-21T02:25:21.181Z,53.60
2018-05-21T02:27:49.413Z,53.60
2018-05-21T02:30:17.712Z,53.60
2018-05-21T02:32:46.028Z,53.60
2018-05-21T02:35:14.303Z,53.60
2018-05-21T02:37:42.709Z,53.60
2018-05-21T02:40:11.190Z,53.60
2018-05-21T02:42:39.602Z,53.60
2018-05-21T02:45:07.871Z,53.60
2018-05-21T02:47:36.148Z,53.60
2018-05-21T02:50:04.419Z,53.60
2018-05-21T02:52:32.689Z,53.20
2018-05-21T02:55:01.154Z,53.70
2018-05-21T02:57:29.493Z,53.60
2018-05-21T02:59:57.758Z,54.20
2018-05-21T03:02:26.245Z,53.60
2018-05-21T03:04:55.277Z,53.80
2018-05-21T03:07:23.956Z,53.70
2018-05-21T03:09:52.220Z,53.70
2018-05-21T03:12:20.485Z,53.60
2018-05-21T03:14:48.747Z,53.60
2018-05-21T03:17:17.198Z,53.60
2018-05-21T03:19:45.495Z,53.10
2018-05-21T03:22:13.942Z,53.70
2018-05-21T03:24:42.306Z,53.60
2018-05-21T03:27:11.355Z,53.60
2018-05-21T03:29:39.693Z,53.60
2018-05-21T03:32:08.103Z,53.60
2018-05-21T03:34:36.392Z,53.60
2018-05-21T03:37:04.855Z,53.60
2018-05-21T03:39:33.223Z,53.60
2018-05-21T03:42:01.603Z,53.60
2018-05-21T03:44:29.976Z,53.60
2018-05-21T03:46:58.271Z,53.60
2018-05-21T03:49:26.740Z,53.60
2018-05-21T03:51:55.079Z,53.60
2018-05-21T03:54:23.496Z,53.60
2018-05-21T03:56:51.879Z,53.60
2018-05-21T03:59:31.976Z,53.60
2018-05-21T04:02:12.279Z,53.60
2018-05-21T04:04:40.549Z,53.60
2018-05-21T04:07:09.664Z,53.70
2018-05-21T04:09:37.976Z,53.70
2018-05-21T04:12:07.023Z,54.30
2018-05-21T04:14:35.331Z,53.60
2018-05-21T04:17:03.616Z,53.60
2018-05-21T04:19:31.875Z,53.60
2018-05-21T04:22:00.143Z,53.60
2018-05-21T04:24:28.539Z,53.70
2018-05-21T04:26:56.995Z,53.60
2018-05-21T04:29:25.296Z,53.60
2018-05-21T04:31:53.733Z,53.60
2018-05-21T04:34:22.112Z,53.60
2018-05-21T04:36:50.441Z,53.60
2018-05-21T04:39:18.850Z,53.60
2018-05-21T04:41:47.262Z,53.60
2018-05-21T04:44:15.656Z,53.60
2018-05-21T04:46:44.023Z,53.60
2018-05-21T04:49:12.387Z,53.60
2018-05-21T04:51:40.649Z,53.60
2018-05-21T04:54:08.915Z,53.60
2018-05-21T04:56:37.230Z,53.60
2018-05-21T04:59:05.618Z,53.70
2018-05-21T05:01:33.919Z,53.70
2018-05-21T05:04:02.379Z,53.60
2018-05-21T05:06:31.047Z,53.60
2018-05-21T05:09:03.767Z,53.60
2018-05-21T05:11:34.553Z,53.70
2018-05-21T05:14:05.181Z,53.70
2018-05-21T05:16:35.886Z,53.80
2018-05-21T05:19:08.297Z,53.90
2018-05-21T05:21:51.872Z,53.90
2018-05-21T05:24:21.995Z,53.90
2018-05-21T05:26:55.392Z,53.90
2018-05-21T05:29:25.154Z,54.00
2018-05-21T05:31:57.368Z,54.00
2018-05-21T05:34:25.647Z,51.40
2018-05-21T05:36:54.020Z,50.70
2018-05-21T05:39:32.037Z,53.30
2018-05-21T05:42:18.962Z,53.90
2018-05-21T05:44:52.963Z,53.80
2018-05-21T05:47:21.254Z,53.80
2018-05-21T05:49:49.732Z,53.80
2018-05-21T05:52:18.024Z,54.00
2018-05-21T05:54:46.490Z,53.90
2018-05-21T05:57:15.530Z,55.10
2018-05-21T05:59:57.558Z,54.40
2018-05-21T06:02:27.318Z,54.40
2018-05-21T06:04:55.655Z,55.00
2018-05-21T06:07:23.969Z,54.50
2018-05-21T06:09:52.411Z,54.60
2018-05-21T06:12:20.714Z,54.60
2018-05-21T06:14:49.184Z,54.70
2018-05-21T06:17:17.583Z,54.80
2018-05-21T06:19:45.864Z,54.80
2018-05-21T06:22:14.139Z,54.80
2018-05-21T06:24:42.420Z,54.80
2018-05-21T06:27:10.759Z,54.80
2018-05-21T06:29:39.034Z,54.80
2018-05-21T06:32:07.512Z,54.80
2018-05-21T06:34:35.803Z,54.90
2018-05-21T06:37:04.074Z,55.00
2018-05-21T06:39:32.363Z,55.10
2018-05-21T06:42:00.654Z,55.10
2018-05-21T06:44:29.104Z,55.00
2018-05-21T06:46:57.479Z,55.20
2018-05-21T06:49:25.783Z,55.20
2018-05-21T06:51:54.058Z,54.40
2018-05-21T06:54:22.327Z,53.70
2018-05-21T06:56:51.366Z,53.20
2018-05-21T06:59:19.642Z,53.20
2018-05-21T07:01:47.990Z,52.80
2018-05-21T07:04:16.440Z,53.10
2018-05-21T07:06:44.726Z,51.80
2018-05-21T07:09:13.282Z,52.70
2018-05-21T07:11:41.855Z,52.00
2018-05-21T07:14:10.901Z,52.80
2018-05-21T07:16:39.245Z,52.90
2018-05-21T07:19:07.562Z,52.40
2018-05-21T07:21:36.231Z,51.70
2018-05-21T07:24:04.505Z,52.40
2018-05-21T07:26:32.877Z,51.60
2018-05-21T07:29:01.389Z,52.30
2018-05-21T07:31:29.888Z,52.10
2018-05-21T07:33:58.145Z,51.80
2018-05-21T07:36:27.199Z,52.10
2018-05-21T07:38:55.503Z,52.00
2018-05-21T07:41:23.961Z,52.10
2018-05-21T07:43:53.862Z,52.10
2018-05-21T07:46:22.207Z,51.60
2018-05-21T07:48:50.567Z,51.70
2018-05-21T07:51:19.853Z,52.10
2018-05-21T07:53:49.005Z,51.90
2018-05-21T07:56:17.563Z,53.20
2018-05-21T07:58:45.877Z,51.60
2018-05-21T08:01:15.833Z,52.60
2018-05-21T08:03:45.326Z,52.80
2018-05-21T08:06:17.600Z,52.70
2018-05-21T08:08:45.856Z,52.10
2018-05-21T08:11:14.196Z,52.60
2018-05-21T08:13:42.474Z,52.10
2018-05-21T08:16:10.785Z,52.60
2018-05-21T08:18:39.082Z,53.20
2018-05-21T08:21:07.400Z,52.70
2018-05-21T08:23:35.654Z,52.80
2018-05-21T08:26:03.987Z,53.00
2018-05-21T08:28:32.391Z,53.60
2018-05-21T08:31:00.684Z,52.70
2018-05-21T08:33:29.150Z,53.20
2018-05-21T08:35:57.497Z,52.80
2018-05-21T08:38:25.767Z,52.90
2018-05-21T08:40:54.290Z,52.50
2018-05-21T08:43:22.570Z,52.70
2018-05-21T08:45:50.853Z,53.10
2018-05-21T08:48:19.128Z,52.80
2018-05-21T08:50:47.414Z,53.40
2018-05-21T08:53:16.463Z,54.30
2018-05-21T08:55:44.744Z,53.60
2018-05-21T08:58:13.256Z,52.80
2018-05-21T09:00:41.639Z,52.30
2018-05-21T09:03:09.923Z,53.90
2018-05-21T09:05:38.381Z,53.40
2018-05-21T09:08:06.659Z,52.90
2018-05-21T09:10:34.938Z,53.80
2018-05-21T09:13:03.219Z,53.20
2018-05-21T09:15:31.484Z,53.60
2018-05-21T09:17:59.905Z,53.00
2018-05-21T09:20:28.343Z,53.10
2018-05-21T09:22:56.628Z,53.30
2018-05-21T09:25:25.129Z,53.30
2018-05-21T09:27:53.418Z,52.50
2018-05-21T09:30:21.890Z,52.90
2018-05-21T09:32:50.179Z,53.10
2018-05-21T09:35:18.466Z,53.70
2018-05-21T09:37:46.747Z,53.50
2018-05-21T09:40:15.068Z,54.10
2018-05-21T09:42:43.483Z,53.80
2018-05-21T09:45:11.847Z,54.50
2018-05-21T09:47:40.122Z,54.10
2018-05-21T09:50:08.440Z,54.30
2018-05-21T09:52:36.725Z,53.80
2018-05-21T09:55:05.020Z,54.10
2018-05-21T09:57:33.489Z,54.40
2018-05-21T10:00:01.798Z,54.70
2018-05-21T10:02:30.075Z,54.00
2018-05-21T10:04:58.347Z,54.10
2018-05-21T10:07:26.629Z,54.00
2018-05-21T10:09:54.935Z,54.20
2018-05-21T10:12:23.392Z,54.10
2018-05-21T10:14:51.874Z,54.40
2018-05-21T10:17:20.131Z,55.00
2018-05-21T10:19:48.402Z,54.50
2018-05-21T10:22:16.851Z,54.50
2018-05-21T10:24:45.126Z,55.10
2018-05-21T10:27:13.406Z,54.40
2018-05-21T10:29:42.355Z,54.50
2018-05-21T10:32:10.662Z,54.40
2018-05-21T10:34:39.179Z,54.60
2018-05-21T10:37:07.576Z,53.80
2018-05-21T10:39:35.869Z,52.10
2018-05-21T10:42:04.163Z,52.40
2018-05-21T10:44:36.452Z,51.20
2018-05-21T10:47:07.296Z,51.20
2018-05-21T10:49:39.008Z,51.50
2018-05-21T10:52:08.592Z,50.10
2018-05-21T10:54:36.902Z,50.60
2018-05-21T10:57:05.182Z,50.10
2018-05-21T10:59:33.477Z,50.00
2018-05-21T11:02:01.763Z,49.80
2018-05-21T11:04:30.068Z,50.20
2018-05-21T11:06:58.356Z,47.40
2018-05-21T11:09:26.857Z,47.40
2018-05-21T11:11:55.150Z,48.90
2018-05-21T11:14:23.620Z,48.40
2018-05-21T11:16:51.974Z,48.00
2018-05-21T11:19:20.252Z,48.40
2018-05-21T11:21:48.541Z,47.90
2018-05-21T11:24:16.838Z,48.30
2018-05-21T11:26:45.143Z,48.00
2018-05-21T11:29:13.423Z,48.20
2018-05-21T11:31:41.730Z,47.80
2018-05-21T11:34:10.003Z,47.30
2018-05-21T11:36:38.274Z,47.30
2018-05-21T11:39:06.704Z,47.50
2018-05-21T11:41:35.007Z,47.20
2018-05-21T11:44:03.302Z,47.10
2018-05-21T11:46:31.615Z,46.50
2018-05-21T11:49:00.006Z,46.10
2018-05-21T11:51:28.298Z,45.90
2018-05-21T11:54:01.778Z,45.90
2018-05-21T11:56:31.400Z,45.50
2018-05-21T11:59:00.343Z,45.70
2018-05-21T12:01:28.671Z,45.70
2018-05-21T12:03:56.933Z,45.00
2018-05-21T12:06:25.420Z,45.50
2018-05-21T12:08:53.790Z,45.70
2018-05-21T12:11:22.177Z,46.30
2018-05-21T12:13:50.455Z,47.00
2018-05-21T12:16:18.751Z,47.60
2018-05-21T12:18:47.061Z,48.60
2018-05-21T12:21:16.185Z,48.20
2018-05-21T12:23:44.464Z,48.60
2018-05-21T12:26:12.751Z,48.80
2018-05-21T12:28:41.074Z,48.90
2018-05-21T12:31:09.322Z,49.30
2018-05-21T12:33:38.369Z,49.60
2018-05-21T12:36:06.666Z,49.60
2018-05-21T12:38:34.940Z,50.10
2018-05-21T12:41:03.218Z,50.10
2018-05-21T12:43:31.491Z,50.00
2018-05-21T12:45:59.786Z,50.20
2018-05-21T12:48:28.158Z,50.20
2018-05-21T12:50:56.498Z,50.30
2018-05-21T12:53:24.794Z,50.50
2018-05-21T12:55:53.289Z,51.30
2018-05-21T12:58:21.613Z,51.00
2018-05-21T13:00:50.074Z,51.00
2018-05-21T13:03:18.362Z,50.80
2018-05-21T13:05:46.822Z,51.20
2018-05-21T13:08:15.110Z,51.30
2018-05-21T13:10:43.578Z,51.50
2018-05-21T13:13:11.977Z,51.30
2018-05-21T13:15:40.335Z,51.70
2018-05-21T13:18:08.671Z,50.90
2018-05-21T13:20:36.975Z,51.30
2018-05-21T13:23:05.249Z,51.30
2018-05-21T13:25:33.529Z,50.70
2018-05-21T13:28:01.808Z,48.80
2018-05-21T13:30:30.910Z,50.70
2018-05-21T13:32:59.234Z,50.70
2018-05-21T13:35:27.699Z,50.40
2018-05-21T13:37:55.941Z,51.10
2018-05-21T13:40:24.446Z,48.90
2018-05-21T13:42:52.705Z,45.70
2018-05-21T13:45:21.000Z,44.80
2018-05-21T13:47:49.269Z,44.60
2018-05-21T13:50:17.531Z,44.00
2018-05-21T13:52:45.834Z,45.40
2018-05-21T13:55:14.090Z,44.00
2018-05-21T13:57:42.458Z,45.00
2018-05-21T14:00:10.734Z,44.50
2018-05-21T14:02:39.006Z,46.70
2018-05-21T14:05:07.295Z,44.60
2018-05-21T14:07:35.578Z,47.80
2018-05-21T14:10:03.857Z,46.70
2018-05-21T14:12:32.165Z,43.80
2018-05-21T14:15:00.410Z,46.80
2018-05-21T14:17:28.973Z,47.30
2018-05-21T14:19:57.261Z,46.90
2018-05-21T14:22:25.532Z,46.50
2018-05-21T14:24:53.811Z,45.30
2018-05-21T14:27:22.120Z,46.70
2018-05-21T14:29:50.544Z,47.00
2018-05-21T14:32:18.734Z,46.90
2018-05-21T14:34:47.273Z,46.70
2018-05-21T14:37:15.652Z,46.70
2018-05-21T14:39:43.920Z,44.20
2018-05-21T14:42:12.995Z,44.00
2018-05-21T14:44:41.262Z,44.00
2018-05-21T14:47:09.748Z,45.80
2018-05-21T14:49:38.015Z,46.20
2018-05-21T14:52:06.284Z,45.60
2018-05-21T14:54:34.584Z,45.50
2018-05-21T14:57:02.939Z,46.20
2018-05-21T14:59:31.202Z,45.50
2018-05-21T15:01:59.533Z,46.10
2018-05-21T15:04:27.753Z,45.50
2018-05-21T15:06:56.020Z,45.70
2018-05-21T15:09:24.319Z,45.80
2018-05-21T15:11:52.570Z,45.00
2018-05-21T15:14:20.838Z,43.60
2018-05-21T15:16:49.102Z,45.50
2018-05-21T15:19:17.442Z,45.30
2018-05-21T15:21:45.718Z,44.60
2018-05-21T15:24:13.995Z,45.00
2018-05-21T15:26:42.253Z,45.00
2018-05-21T15:29:10.526Z,44.20
2018-05-21T15:31:39.035Z,44.80
2018-05-21T15:34:07.297Z,44.60
2018-05-21T15:36:35.570Z,45.00
2018-05-21T15:39:03.886Z,43.40
2018-05-21T15:41:32.151Z,44.80
2018-05-21T15:44:00.636Z,44.80
2018-05-21T15:46:28.903Z,44.90
2018-05-21T15:48:57.369Z,44.60
2018-05-21T15:51:25.633Z,44.80
2018-05-21T15:53:54.140Z,44.60
2018-05-21T15:56:22.404Z,44.40
2018-05-21T15:58:50.664Z,44.20
2018-05-21T16:01:18.933Z,44.10
2018-05-21T16:03:47.215Z,44.20
2018-05-21T16:06:16.310Z,44.10
2018-05-21T16:08:44.602Z,44.10
2018-05-21T16:11:13.674Z,44.00
2018-05-21T16:13:41.946Z,43.90
2018-05-21T16:16:10.239Z,43.80
2018-05-21T16:18:38.515Z,43.80
2018-05-21T16:21:06.917Z,43.90
2018-05-21T16:23:35.290Z,43.90
2018-05-21T16:26:03.670Z,44.20
2018-05-21T16:28:31.964Z,44.30
2018-05-21T16:31:01.328Z,44.20
2018-05-21T16:33:29.652Z,44.40
2018-05-21T16:35:57.965Z,44.50
2018-05-21T16:38:26.259Z,44.60
2018-05-21T16:40:54.523Z,44.80
2018-05-21T16:43:22.930Z,44.60
2018-05-21T16:45:51.390Z,45.00
2018-05-21T16:48:19.639Z,45.20
2018-05-21T16:50:48.696Z,45.30
2018-05-21T16:53:16.964Z,45.30
2018-05-21T16:55:45.456Z,45.70
2018-05-21T16:58:13.736Z,45.70
2018-05-21T17:00:42.208Z,45.90
2018-05-21T17:03:10.500Z,46.00
2018-05-21T17:05:38.811Z,46.10
2018-05-21T17:08:08.310Z,46.00
2018-05-21T17:10:36.663Z,46.40
2018-05-21T17:13:04.933Z,46.30
2018-05-21T17:15:33.425Z,46.40
2018-05-21T17:18:08.591Z,46.90
2018-05-21T17:20:40.420Z,47.20
2018-05-21T17:23:11.553Z,47.10
2018-05-21T17:25:41.646Z,47.20
2018-05-21T17:28:25.017Z,47.00
2018-05-21T17:30:56.617Z,47.00
2018-05-21T17:33:28.121Z,46.90
2018-05-21T17:35:59.232Z,47.10
2018-05-21T17:38:27.505Z,47.10
2018-05-21T17:40:58.901Z,47.30
2018-05-21T17:46:06.913Z,47.40
2018-05-21T17:48:37.997Z,46.70
2018-05-21T17:51:06.253Z,47.30
2018-05-21T17:53:35.302Z,47.60
2018-05-21T17:56:03.576Z,47.60
2018-05-21T17:58:31.855Z,47.60
2018-05-21T18:01:00.124Z,47.60
2018-05-21T18:03:28.385Z,47.70
2018-05-21T18:05:56.681Z,47.70
2018-05-21T18:08:24.927Z,47.90
2018-05-21T18:10:53.350Z,47.90
2018-05-21T18:13:21.613Z,48.00
2018-05-21T18:15:49.906Z,47.90
2018-05-21T18:18:18.176Z,48.00
2018-05-21T18:20:46.562Z,48.10
2018-05-21T18:23:15.219Z,48.20
2018-05-21T18:25:43.743Z,48.30
2018-05-21T18:28:11.993Z,48.20
2018-05-21T18:30:40.266Z,48.30
2018-05-21T18:33:08.678Z,48.20
2018-05-21T18:35:36.944Z,48.40
2018-05-21T18:38:05.213Z,48.50
2018-05-21T18:40:33.478Z,48.50
2018-05-21T18:43:01.771Z,48.60
2018-05-21T18:45:30.039Z,48.70
2018-05-21T18:47:58.542Z,48.60
2018-05-21T18:50:26.827Z,48.90
2018-05-21T18:52:55.186Z,48.80
2018-05-21T18:55:23.477Z,48.30
2018-05-21T18:57:51.758Z,48.90
2018-05-21T19:00:20.129Z,48.70
2018-05-21T19:02:49.418Z,48.90
2018-05-21T19:05:19.184Z,49.00
2018-05-21T19:07:48.182Z,49.10
2018-05-21T19:10:18.104Z,49.20
2018-05-21T19:12:47.942Z,49.30
2018-05-21T19:15:16.308Z,49.10
2018-05-21T19:17:44.530Z,49.10
2018-05-21T19:20:12.811Z,48.80
2018-05-21T19:22:41.091Z,48.70
2018-05-21T19:25:09.354Z,49.10
2018-05-21T19:27:37.644Z,49.40
2018-05-21T19:30:06.693Z,49.40
2018-05-21T19:32:35.201Z,49.40
2018-05-21T19:35:03.547Z,49.50
2018-05-21T19:37:31.806Z,49.30
2018-05-21T19:40:00.066Z,49.60
2018-05-21T19:42:28.349Z,49.40
2018-05-21T19:44:56.621Z,49.60
2018-05-21T19:47:25.651Z,49.80
2018-05-21T19:49:53.943Z,49.70
2018-05-21T19:52:22.214Z,49.70
2018-05-21T19:54:50.520Z,49.70
2018-05-21T19:57:18.945Z,49.60
2018-05-21T19:59:47.612Z,50.00
2018-05-21T20:02:15.967Z,49.80
2018-05-21T20:04:44.231Z,49.70
2018-05-21T20:07:12.691Z,50.00
2018-05-21T20:09:40.976Z,49.90
2018-05-21T20:12:09.228Z,50.00
2018-05-21T20:14:37.525Z,50.00
2018-05-21T20:17:05.792Z,50.20
2018-05-21T20:19:34.061Z,50.20
2018-05-21T20:22:02.352Z,50.10
2018-05-21T20:24:30.725Z,50.20
2018-05-21T20:26:59.119Z,50.20
2018-05-21T20:29:27.483Z,50.40
2018-05-21T20:31:55.760Z,50.30
2018-05-21T20:34:24.030Z,50.30
2018-05-21T20:36:52.362Z,50.40
2018-05-21T20:39:25.755Z,50.30
2018-05-21T20:41:58.918Z,50.40
2018-05-21T20:44:28.332Z,50.20
2018-05-21T20:46:57.842Z,50.50
2018-05-21T20:49:27.198Z,49.90
2018-05-21T20:51:57.948Z,50.20
2018-05-21T20:54:26.987Z,50.10
2018-05-21T20:56:56.285Z,50.20
2018-05-21T20:59:24.570Z,49.90
2018-05-21T21:01:53.620Z,50.20
2018-05-21T21:04:21.878Z,50.30
2018-05-21T21:06:50.147Z,50.20
2018-05-21T21:09:18.419Z,50.20
2018-05-21T21:11:46.682Z,50.30
2018-05-21T21:14:14.964Z,50.20
2018-05-21T21:16:43.304Z,49.90
2018-05-21T21:19:11.590Z,50.30
2018-05-21T21:21:39.882Z,50.20
2018-05-21T21:24:08.135Z,50.30
2018-05-21T21:26:36.495Z,50.50
2018-05-21T21:29:04.770Z,50.20
2018-05-21T21:31:33.278Z,50.20
2018-05-21T21:34:01.559Z,50.30
2018-05-21T21:36:29.832Z,50.50
2018-05-21T21:38:58.114Z,50.60
2018-05-21T21:41:26.378Z,50.00
2018-05-21T21:43:54.669Z,50.10
2018-05-21T21:46:22.963Z,49.50
2018-05-21T21:48:51.291Z,49.20
2018-05-21T21:51:19.557Z,49.30
2018-05-21T21:53:47.854Z,50.10
2018-05-21T21:56:16.935Z,49.30
2018-05-21T21:58:45.380Z,49.40
2018-05-21T22:01:13.794Z,49.10
2018-05-21T22:03:42.089Z,49.40
2018-05-21T22:06:10.360Z,49.40
2018-05-21T22:08:38.650Z,49.40
2018-05-21T22:11:06.918Z,48.70
2018-05-21T22:13:35.190Z,49.60
2018-05-21T22:16:03.486Z,49.60
2018-05-21T22:18:31.757Z,49.60
2018-05-21T22:21:00.063Z,49.60
2018-05-21T22:23:28.354Z,49.30
2018-05-21T22:25:56.642Z,49.60
2018-05-21T22:28:24.909Z,49.80
2018-05-21T22:30:53.199Z,49.60
2018-05-21T22:33:21.461Z,49.60
2018-05-21T22:35:49.761Z,49.80
2018-05-21T22:38:18.039Z,49.70
2018-05-21T22:40:46.326Z,49.50
2018-05-21T22:43:14.606Z,49.20
2018-05-21T22:45:42.866Z,49.60
2018-05-21T22:48:11.141Z,49.60
2018-05-21T22:50:39.542Z,49.60
2018-05-21T22:53:07.831Z,49.40
2018-05-21T22:55:36.303Z,49.40
2018-05-21T22:58:04.669Z,49.40
2018-05-21T23:00:32.951Z,49.30
2018-05-21T23:03:01.253Z,49.30
2018-05-21T23:05:29.536Z,49.50
2018-05-21T23:07:57.801Z,49.40
2018-05-21T23:10:26.078Z,49.40
2018-05-21T23:12:54.348Z,49.50
2018-05-21T23:15:22.615Z,49.30
2018-05-21T23:17:50.969Z,49.40
2018-05-21T23:20:19.278Z,49.40
2018-05-21T23:22:47.556Z,49.60
2018-05-21T23:25:15.818Z,49.30
2018-05-21T23:27:44.088Z,49.60
2018-05-21T23:30:13.829Z,49.60
2018-05-21T23:32:42.898Z,50.50
2018-05-21T23:35:11.160Z,49.90
2018-05-21T23:37:39.434Z,49.60
2018-05-21T23:40:07.765Z,49.80
2018-05-21T23:42:36.028Z,49.80
2018-05-21T23:45:04.498Z,49.60
2018-05-21T23:47:32.891Z,49.70
2018-05-21T23:50:01.176Z,49.50
2018-05-21T23:52:29.633Z,49.60
2018-05-21T23:54:58.033Z,49.40
2018-05-21T23:57:26.308Z,49.60
2018-05-21T23:59:54.582Z,49.60
